Nisshoumaru — JD3093 — position and weather

sailwx.info

Track history (hours):
 
Tides and Currents Weather Stations Pressure Air Temp Water Temp Dewpoint Dewpoint Depression Visibility Wind Speed Wind Dir Waves Ship Positions

Nisshoumaru

Last reported at 2014-Dec-19 02:08 UTC. Time now 2014-Dec-19 10:46 UTC.
Position N 33°40' E 129°57'.

Length 76 m; draft 4 m.

Type: Cargo ship. MMSI: 431001549.

Date/timePositionNaut miles runAvg speedWind from/ knotsBaromVisibWave heightAir tempDewpointWater temp
2014-Dec-19 02:08N 33°40' E 129°57'712.3
2014-Dec-19 01:33N 33°43' E 130°05'1312.0
2014-Dec-19 00:28N 33°49' E 130°19'  
2014-Dec-14 21:23N 34°01' E 134°52'251 5.9
2014-Dec-13 03:07N 35°11' E 139°46'711.7
2014-Dec-13 02:33N 35°18' E 139°44'7 6.7
2014-Dec-13 01:33N 35°24' E 139°48'4 3.6
2014-Dec-13 00:33N 35°21' E 139°51'0 0.0
2014-Dec-12 23:32N 35°21' E 139°51'0 0.0
2014-Dec-12 22:33N 35°21' E 139°51'0 0.0
2014-Dec-12 21:33N 35°21' E 139°51'0 0.0
2014-Dec-12 20:33N 35°21' E 139°51'0 0.0
2014-Dec-12 19:33N 35°21' E 139°51'0 0.0
2014-Dec-12 18:33N 35°21' E 139°51'0 0.0
2014-Dec-12 17:33N 35°21' E 139°51'0 0.0
2014-Dec-12 16:33N 35°21' E 139°51'0 0.0
2014-Dec-12 15:33N 35°21' E 139°51'0 0.0
2014-Dec-12 14:33N 35°21' E 139°51'0 0.0
2014-Dec-12 13:33N 35°21' E 139°51'0 0.0
2014-Dec-12 12:33N 35°21' E 139°51'0 0.0
2014-Dec-12 11:33N 35°21' E 139°51'0 0.0
2014-Dec-12 10:33N 35°21' E 139°51'0 0.0
2014-Dec-12 09:18N 35°21' E 139°51'0 0.0
2014-Dec-12 08:33N 35°21' E 139°51'0 0.0
2014-Dec-12 07:31N 35°21' E 139°51'2 0.1
2014-Dec-11 00:33N 35°23' E 139°51'6 0.9
2014-Dec-10 18:16N 35°28' E 139°48'1013.3
2014-Dec-10 17:34N 35°19' E 139°44'  
Track history (hours):
 
Tides and Currents Weather Stations Pressure Air Temp Water Temp Dewpoint Dewpoint Depression Visibility Wind Speed Wind Dir Waves Ship Positions

Nisshoumaru

Last reported at 2014-Dec-19 02:08 UTC. Time now 2014-Dec-19 10:46 UTC.
Position N 33°40' E 129°57'.

Length 76 m; draft 4 m.

Type: Cargo ship. MMSI: 431001549.

Date/timePositionNaut miles runAvg speedWind from/ knotsBaromVisibWave heightAir tempDewpointWater temp
2014-Dec-19 02:08N 33°40' E 129°57'712.3
2014-Dec-19 01:33N 33°43' E 130°05'1312.0
2014-Dec-19 00:28N 33°49' E 130°19'  
2014-Dec-14 21:23N 34°01' E 134°52'251 5.9
2014-Dec-13 03:07N 35°11' E 139°46'711.7
2014-Dec-13 02:33N 35°18' E 139°44'7 6.7
2014-Dec-13 01:33N 35°24' E 139°48'4 3.6
2014-Dec-13 00:33N 35°21' E 139°51'0 0.0
2014-Dec-12 23:32N 35°21' E 139°51'0 0.0
2014-Dec-12 22:33N 35°21' E 139°51'0 0.0
2014-Dec-12 21:33N 35°21' E 139°51'0 0.0
2014-Dec-12 20:33N 35°21' E 139°51'0 0.0
2014-Dec-12 19:33N 35°21' E 139°51'0 0.0
2014-Dec-12 18:33N 35°21' E 139°51'0 0.0
2014-Dec-12 17:33N 35°21' E 139°51'0 0.0
2014-Dec-12 16:33N 35°21' E 139°51'0 0.0
2014-Dec-12 15:33N 35°21' E 139°51'0 0.0
2014-Dec-12 14:33N 35°21' E 139°51'0 0.0
2014-Dec-12 13:33N 35°21' E 139°51'0 0.0
2014-Dec-12 12:33N 35°21' E 139°51'0 0.0
2014-Dec-12 11:33N 35°21' E 139°51'0 0.0
2014-Dec-12 10:33N 35°21' E 139°51'0 0.0
2014-Dec-12 09:18N 35°21' E 139°51'0 0.0
2014-Dec-12 08:33N 35°21' E 139°51'0 0.0
2014-Dec-12 07:31N 35°21' E 139°51'2 0.1
2014-Dec-11 00:33N 35°23' E 139°51'6 0.9
2014-Dec-10 18:16N 35°28' E 139°48'1013.3
2014-Dec-10 17:34N 35°19' E 139°44'  

Dump ship's entire track history